createdAt,value
2023-12-13T00:00:33.043Z,17.96
2023-12-13T00:02:59.832Z,17.98
2023-12-13T00:05:26.672Z,17.98
2023-12-13T00:07:53.635Z,17.99
2023-12-13T00:10:20.595Z,17.99
2023-12-13T00:12:47.415Z,18.12
2023-12-13T00:15:14.196Z,18.08
2023-12-13T00:17:41.070Z,18.06
2023-12-13T00:20:08.084Z,18.10
2023-12-13T00:22:35.039Z,18.09
2023-12-13T00:25:01.906Z,18.04
2023-12-13T00:27:28.789Z,18.04
2023-12-13T00:29:55.576Z,18.01
2023-12-13T00:32:22.452Z,18.00
2023-12-13T00:34:49.677Z,18.01
2023-12-13T00:37:16.738Z,18.03
2023-12-13T00:39:43.721Z,18.02
2023-12-13T00:42:10.519Z,17.97
2023-12-13T00:44:37.294Z,17.99
2023-12-13T00:47:04.086Z,18.00
2023-12-13T00:49:30.886Z,18.03
2023-12-13T00:51:57.731Z,18.03
2023-12-13T00:54:24.503Z,18.05
2023-12-13T00:56:51.311Z,18.03
2023-12-13T00:59:18.081Z,18.01
2023-12-13T01:01:44.999Z,18.03
2023-12-13T01:04:12.072Z,18.03
2023-12-13T01:06:38.997Z,18.04
2023-12-13T01:09:05.833Z,18.00
2023-12-13T01:11:32.617Z,17.98
2023-12-13T01:13:59.475Z,17.95
2023-12-13T01:16:26.368Z,18.03
2023-12-13T01:18:53.265Z,18.04
2023-12-13T01:21:20.183Z,18.04
2023-12-13T01:23:47.011Z,18.14
2023-12-13T01:26:13.826Z,18.25
2023-12-13T01:28:40.753Z,18.31
2023-12-13T01:31:07.749Z,18.34
2023-12-13T01:33:34.692Z,18.37
2023-12-13T01:36:01.539Z,18.37
2023-12-13T01:38:28.381Z,18.38
2023-12-13T01:41:11.212Z,18.35
2023-12-13T01:43:41.015Z,18.36
2023-12-13T01:46:07.916Z,18.35
2023-12-13T01:48:34.923Z,18.31
2023-12-13T01:51:01.844Z,18.36
2023-12-13T01:53:28.646Z,18.38
2023-12-13T01:55:55.664Z,18.40
2023-12-13T01:58:22.596Z,18.36
2023-12-13T02:00:49.569Z,18.40
2023-12-13T02:03:16.397Z,18.42
2023-12-13T02:05:43.365Z,18.36
2023-12-13T02:08:10.185Z,18.43
2023-12-13T02:10:36.987Z,18.42
2023-12-13T02:13:03.814Z,18.40
2023-12-13T02:15:30.652Z,18.40
2023-12-13T02:17:57.531Z,18.43
2023-12-13T02:20:24.403Z,18.43
2023-12-13T02:22:51.227Z,18.45
2023-12-13T02:25:18.185Z,18.42
2023-12-13T02:27:45.013Z,18.43
2023-12-13T02:30:11.872Z,18.45
2023-12-13T02:32:38.729Z,18.46
2023-12-13T02:35:05.542Z,18.47
2023-12-13T02:37:32.522Z,18.44
2023-12-13T02:39:59.501Z,18.45
2023-12-13T02:42:26.316Z,18.41
2023-12-13T02:44:53.145Z,18.45
2023-12-13T02:47:19.968Z,18.41
2023-12-13T02:49:46.768Z,18.40
2023-12-13T02:52:13.594Z,18.43
2023-12-13T02:54:40.376Z,18.45
2023-12-13T02:57:07.193Z,18.42
2023-12-13T02:59:34.007Z,18.39
2023-12-13T03:02:00.929Z,18.38
2023-12-13T03:04:27.834Z,18.41
2023-12-13T03:06:54.722Z,18.36
2023-12-13T03:09:21.544Z,18.38
2023-12-13T03:11:48.311Z,18.40
2023-12-13T03:14:15.094Z,18.42
2023-12-13T03:16:41.940Z,18.47
2023-12-13T03:19:08.859Z,18.48
2023-12-13T03:21:35.775Z,18.46
2023-12-13T03:24:02.576Z,18.48
2023-12-13T03:26:29.361Z,18.45
2023-12-13T03:28:56.190Z,18.46
2023-12-13T03:31:23.011Z,18.50
2023-12-13T03:33:49.877Z,18.50
2023-12-13T03:36:16.680Z,18.50
2023-12-13T03:38:43.489Z,18.54
2023-12-13T03:41:10.286Z,18.40
2023-12-13T03:43:37.212Z,18.41
2023-12-13T03:46:04.100Z,18.44
2023-12-13T03:48:30.975Z,18.51
2023-12-13T03:50:57.769Z,18.54
2023-12-13T03:53:24.583Z,18.51
2023-12-13T03:55:51.446Z,18.54
2023-12-13T03:58:18.341Z,18.64
2023-12-13T04:17:11.462Z,18.49
2023-12-13T04:19:38.258Z,18.51
2023-12-13T04:22:05.134Z,18.58
2023-12-13T04:24:31.908Z,18.55
2023-12-13T04:26:58.703Z,18.55
2023-12-13T04:29:25.476Z,18.53
2023-12-13T04:31:52.500Z,18.51
2023-12-13T04:34:19.551Z,18.56
2023-12-13T04:36:46.393Z,18.55
2023-12-13T04:39:13.221Z,18.59
2023-12-13T04:41:40.023Z,18.48
2023-12-13T04:44:06.826Z,18.41
2023-12-13T04:46:33.646Z,18.50
2023-12-13T04:49:00.598Z,18.39
2023-12-13T04:51:27.415Z,18.44
2023-12-13T04:53:54.188Z,18.57
2023-12-13T04:56:21.013Z,18.62
2023-12-13T04:58:47.900Z,18.56
2023-12-13T05:01:14.889Z,18.57
2023-12-13T05:03:43.749Z,18.48
2023-12-13T05:06:11.793Z,18.55
2023-12-13T05:08:38.593Z,18.48
2023-12-13T05:11:05.439Z,18.43
2023-12-13T05:13:32.321Z,18.41
2023-12-13T05:15:59.118Z,18.39
2023-12-13T05:18:25.899Z,18.41
2023-12-13T05:20:52.673Z,18.42
2023-12-13T05:23:19.457Z,18.44
2023-12-13T05:25:46.272Z,18.40
2023-12-13T05:28:13.123Z,18.38
2023-12-13T05:30:39.980Z,18.38
2023-12-13T05:33:06.924Z,18.37
2023-12-13T05:35:33.730Z,18.34
2023-12-13T05:38:00.596Z,18.41
2023-12-13T05:40:27.486Z,18.41
2023-12-13T05:42:54.288Z,18.38
2023-12-13T05:45:21.076Z,18.40
2023-12-13T05:47:47.930Z,18.41
2023-12-13T05:50:14.998Z,18.36
2023-12-13T05:52:41.844Z,18.38
2023-12-13T05:55:08.660Z,18.42
2023-12-13T05:57:35.858Z,18.38
2023-12-13T06:00:03.063Z,18.36
2023-12-13T06:02:29.913Z,18.36
2023-12-13T06:04:59.395Z,18.58
2023-12-13T06:07:27.719Z,18.56
2023-12-13T06:09:54.600Z,18.60
2023-12-13T06:12:21.386Z,18.62
2023-12-13T06:14:48.175Z,18.64
2023-12-13T06:17:14.984Z,18.57
2023-12-13T06:19:41.803Z,18.45
2023-12-13T06:22:08.635Z,18.55
2023-12-13T06:24:35.410Z,18.69
2023-12-13T06:27:02.214Z,18.79
2023-12-13T06:29:29.032Z,18.69
2023-12-13T06:31:55.938Z,18.66
2023-12-13T06:34:22.755Z,18.82
2023-12-13T06:36:49.629Z,18.69
2023-12-13T06:39:16.400Z,18.65
2023-12-13T06:41:43.220Z,18.62
2023-12-13T06:44:10.039Z,18.61
2023-12-13T06:46:36.857Z,18.65
2023-12-13T06:49:03.806Z,18.63
2023-12-13T06:51:30.672Z,18.58
2023-12-13T06:54:00.141Z,18.58
2023-12-13T06:56:27.184Z,18.60
2023-12-13T06:58:54.159Z,18.60
2023-12-13T07:01:21.083Z,18.61
2023-12-13T07:03:47.960Z,18.61
2023-12-13T07:06:14.820Z,18.62
2023-12-13T07:08:41.637Z,18.58
2023-12-13T07:11:08.416Z,18.60
2023-12-13T07:13:35.388Z,18.58
2023-12-13T07:16:02.250Z,18.60
2023-12-13T07:18:29.057Z,18.56
2023-12-13T07:20:55.856Z,18.57
2023-12-13T07:23:22.630Z,18.60
2023-12-13T07:25:49.427Z,18.60
2023-12-13T07:28:16.267Z,18.62
2023-12-13T07:30:48.683Z,18.58
2023-12-13T07:33:23.942Z,18.59
2023-12-13T07:35:50.762Z,18.58
2023-12-13T07:38:17.588Z,18.60
2023-12-13T07:40:44.418Z,18.61
2023-12-13T07:43:11.223Z,18.61
2023-12-13T07:45:38.033Z,18.61
2023-12-13T07:48:14.078Z,18.59
2023-12-13T07:50:48.746Z,18.57
2023-12-13T07:53:15.701Z,18.61
2023-12-13T07:55:42.519Z,18.61
2023-12-13T07:58:09.336Z,18.63
2023-12-13T08:00:36.150Z,18.63
2023-12-13T08:03:03.091Z,18.64
2023-12-13T08:05:29.978Z,18.62
2023-12-13T08:07:56.852Z,18.63
2023-12-13T08:10:23.633Z,18.64
2023-12-13T08:12:51.733Z,18.63
2023-12-13T08:15:19.023Z,18.65
2023-12-13T08:17:45.816Z,18.67
2023-12-13T08:20:12.729Z,18.66
2023-12-13T08:22:39.560Z,18.66
2023-12-13T08:25:06.414Z,18.68
2023-12-13T08:27:33.484Z,18.62
2023-12-13T08:30:00.373Z,18.66
2023-12-13T08:32:27.562Z,18.68
2023-12-13T08:34:54.458Z,18.69
2023-12-13T08:37:21.328Z,18.70
2023-12-13T08:39:48.212Z,18.70
2023-12-13T08:42:14.999Z,18.70
2023-12-13T08:44:41.782Z,18.73
2023-12-13T08:47:08.602Z,18.72
2023-12-13T08:49:35.448Z,18.71
2023-12-13T08:52:02.261Z,18.71
2023-12-13T08:54:29.070Z,18.70
2023-12-13T08:56:55.981Z,18.69
2023-12-13T08:59:22.817Z,18.65
2023-12-13T09:01:50.099Z,18.63
2023-12-13T09:04:17.063Z,18.60
2023-12-13T09:06:44.092Z,18.58
2023-12-13T09:09:10.889Z,18.56
2023-12-13T09:11:37.734Z,18.58
2023-12-13T09:14:04.541Z,18.60
2023-12-13T09:16:31.382Z,18.51
2023-12-13T09:18:58.285Z,18.52
2023-12-13T09:21:25.101Z,18.51
2023-12-13T09:23:51.926Z,18.47
2023-12-13T09:26:18.736Z,18.47
2023-12-13T09:28:45.591Z,18.50
2023-12-13T09:31:12.440Z,18.47
2023-12-13T09:33:39.354Z,18.47
2023-12-13T09:36:06.249Z,18.48
2023-12-13T09:38:33.073Z,18.46
2023-12-13T09:41:00.030Z,18.43
2023-12-13T09:43:27.019Z,18.38
2023-12-13T09:45:53.803Z,18.39
2023-12-13T09:48:20.642Z,18.33
2023-12-13T09:50:47.491Z,18.36
2023-12-13T09:53:14.367Z,18.29
2023-12-13T09:55:41.176Z,18.32
2023-12-13T09:58:08.014Z,18.26
2023-12-13T10:00:34.876Z,18.25
2023-12-13T10:03:01.676Z,18.23
2023-12-13T10:05:28.547Z,18.25
2023-12-13T10:07:55.366Z,18.21
2023-12-13T10:10:22.209Z,18.22
2023-12-13T10:12:49.019Z,18.15
2023-12-13T10:15:15.837Z,18.14
2023-12-13T10:17:43.714Z,18.11
2023-12-13T10:20:10.950Z,18.12
2023-12-13T10:22:38.248Z,18.13
2023-12-13T10:25:05.130Z,18.18
2023-12-13T10:27:32.137Z,18.14
2023-12-13T10:29:59.075Z,18.16
2023-12-13T10:32:25.896Z,18.15
2023-12-13T10:34:52.848Z,18.15
2023-12-13T10:37:19.757Z,18.08
2023-12-13T10:39:46.582Z,18.05
2023-12-13T10:42:13.366Z,18.11
2023-12-13T10:44:40.164Z,18.12
2023-12-13T10:47:06.936Z,18.09
2023-12-13T10:49:33.796Z,18.12
2023-12-13T10:52:00.605Z,18.09
2023-12-13T10:54:27.374Z,18.04
2023-12-13T10:56:54.244Z,18.04
2023-12-13T10:59:21.036Z,18.04
2023-12-13T11:01:47.894Z,18.00
2023-12-13T11:04:14.779Z,18.05
2023-12-13T11:06:41.626Z,18.10
2023-12-13T11:09:08.431Z,18.08
2023-12-13T11:11:35.195Z,18.13
2023-12-13T11:14:02.031Z,18.04
2023-12-13T11:16:28.943Z,18.03
2023-12-13T11:18:56.223Z,18.00
2023-12-13T11:21:23.550Z,17.93
2023-12-13T11:23:50.326Z,17.96
2023-12-13T11:26:17.132Z,17.90
2023-12-13T11:28:43.963Z,17.86
2023-12-13T11:31:12.469Z,17.80
2023-12-13T11:33:40.511Z,17.86
2023-12-13T11:36:07.332Z,17.92
2023-12-13T11:38:34.136Z,17.87
2023-12-13T11:41:00.945Z,17.93
2023-12-13T11:43:27.790Z,17.98
2023-12-13T11:45:54.677Z,18.01
2023-12-13T11:48:21.606Z,18.03
2023-12-13T11:50:48.494Z,18.06
2023-12-13T11:53:15.293Z,18.08
2023-12-13T11:55:42.137Z,18.13
2023-12-13T11:58:08.945Z,18.14
2023-12-13T12:00:35.773Z,18.19
2023-12-13T12:03:02.571Z,18.23
2023-12-13T12:05:29.612Z,18.34
2023-12-13T12:07:56.651Z,18.34
2023-12-13T12:10:23.498Z,18.28
2023-12-13T12:12:50.315Z,18.23
2023-12-13T12:15:17.097Z,18.21
2023-12-13T12:17:43.968Z,18.21
2023-12-13T12:20:10.867Z,18.20
2023-12-13T12:22:37.791Z,18.20
2023-12-13T12:25:04.653Z,18.22
2023-12-13T12:27:31.636Z,18.19
2023-12-13T12:29:58.689Z,18.20
2023-12-13T12:32:25.507Z,18.20
2023-12-13T12:34:52.400Z,18.24
2023-12-13T12:37:19.360Z,18.25
2023-12-13T12:39:46.181Z,18.26
2023-12-13T12:42:12.974Z,18.23
2023-12-13T12:44:39.836Z,18.26
2023-12-13T12:47:06.899Z,18.38
2023-12-13T12:49:33.858Z,18.29
2023-12-13T12:52:00.677Z,18.28
2023-12-13T12:54:27.517Z,18.28
2023-12-13T12:56:54.333Z,18.29
2023-12-13T12:59:21.188Z,18.31
2023-12-13T13:01:48.061Z,18.35
2023-12-13T13:04:15.058Z,18.40
2023-12-13T13:06:42.054Z,18.36
2023-12-13T13:09:08.864Z,18.40
2023-12-13T13:11:35.656Z,18.38
2023-12-13T13:14:03.809Z,18.42
2023-12-13T13:16:31.303Z,18.39
2023-12-13T13:18:58.117Z,18.38
2023-12-13T13:21:25.008Z,18.41
2023-12-13T13:23:51.801Z,18.40
2023-12-13T13:26:18.569Z,18.41
2023-12-13T13:28:45.498Z,18.42
2023-12-13T13:31:12.353Z,18.46
2023-12-13T13:33:39.352Z,18.43
2023-12-13T13:36:07.974Z,18.44
2023-12-13T13:38:34.876Z,18.42
2023-12-13T13:41:01.728Z,18.41
2023-12-13T13:43:28.566Z,18.41
2023-12-13T13:45:55.351Z,18.44
2023-12-13T13:48:22.220Z,18.42
2023-12-13T13:50:49.032Z,18.45
2023-12-13T13:53:15.865Z,18.45
2023-12-13T13:55:42.721Z,18.49
2023-12-13T13:58:09.589Z,18.48
2023-12-13T14:00:36.388Z,18.50
2023-12-13T14:03:03.237Z,18.52
2023-12-13T14:05:30.449Z,18.50
2023-12-13T14:07:57.340Z,18.50
2023-12-13T14:10:24.223Z,18.47
2023-12-13T14:12:51.027Z,18.50
2023-12-13T14:15:17.813Z,18.54
2023-12-13T14:17:44.720Z,18.54
2023-12-13T14:20:11.689Z,18.52
2023-12-13T14:22:38.594Z,18.54
2023-12-13T14:25:05.466Z,18.54
2023-12-13T14:27:32.469Z,18.55
2023-12-13T14:29:59.396Z,18.57
2023-12-13T14:32:26.194Z,18.57
2023-12-13T14:34:53.137Z,18.57
2023-12-13T14:37:20.049Z,18.57
2023-12-13T14:39:46.921Z,18.58
2023-12-13T14:42:13.715Z,18.58
2023-12-13T14:44:40.515Z,18.58
2023-12-13T14:47:07.328Z,18.60
2023-12-13T14:49:34.294Z,18.62
2023-12-13T14:52:01.230Z,18.64
2023-12-13T14:54:28.062Z,18.65
2023-12-13T14:56:54.964Z,18.65
2023-12-13T14:59:21.800Z,18.66
2023-12-13T15:01:48.607Z,18.66
2023-12-13T15:04:15.441Z,18.67
2023-12-13T15:06:42.251Z,18.67
2023-12-13T15:09:09.046Z,18.69
2023-12-13T15:11:35.839Z,18.70
2023-12-13T15:14:02.715Z,18.71
2023-12-13T15:16:29.566Z,18.73
2023-12-13T15:18:56.443Z,18.73
2023-12-13T15:21:23.255Z,18.74
2023-12-13T15:23:50.109Z,18.74
2023-12-13T15:26:17.029Z,18.73
2023-12-13T15:28:44.121Z,18.76
2023-12-13T15:31:10.982Z,18.77
2023-12-13T15:33:37.899Z,18.78
2023-12-13T15:36:04.695Z,18.79
2023-12-13T15:38:31.514Z,18.77
2023-12-13T15:40:58.367Z,18.80
2023-12-13T15:43:25.265Z,18.79
2023-12-13T15:45:52.161Z,18.79
2023-12-13T15:48:19.084Z,18.81
2023-12-13T15:50:45.948Z,18.83
2023-12-13T15:53:12.801Z,18.84
2023-12-13T15:55:39.626Z,18.85
2023-12-13T15:58:06.565Z,18.84
2023-12-13T16:00:33.360Z,18.85
2023-12-13T16:03:00.219Z,18.86
2023-12-13T16:05:27.090Z,18.87
2023-12-13T16:07:53.965Z,18.87
2023-12-13T16:10:21.319Z,18.90
2023-12-13T16:12:49.841Z,18.90
2023-12-13T16:15:16.933Z,18.90
2023-12-13T16:17:43.779Z,18.92
2023-12-13T16:20:10.760Z,18.94
2023-12-13T16:22:37.951Z,18.93
2023-12-13T16:25:04.972Z,18.93
2023-12-13T16:27:31.859Z,18.93
2023-12-13T16:29:58.640Z,18.96
2023-12-13T16:32:25.496Z,18.97
2023-12-13T16:34:52.389Z,18.96
2023-12-13T16:37:19.201Z,18.96
2023-12-13T16:39:46.013Z,18.94
2023-12-13T16:42:13.059Z,18.94
2023-12-13T16:44:39.864Z,18.91
2023-12-13T16:47:06.713Z,18.90
2023-12-13T16:49:33.595Z,18.91
2023-12-13T16:52:00.422Z,18.89
2023-12-13T16:54:27.231Z,18.83
2023-12-13T16:56:54.043Z,18.81
2023-12-13T16:59:20.850Z,18.77
2023-12-13T17:01:47.676Z,18.75
2023-12-13T17:04:14.508Z,18.76
2023-12-13T17:06:41.375Z,18.76
2023-12-13T17:09:08.256Z,18.72
2023-12-13T17:11:35.123Z,18.71
2023-12-13T17:14:01.955Z,18.67
2023-12-13T17:16:28.990Z,18.69
2023-12-13T17:18:55.846Z,18.63
2023-12-13T17:21:22.653Z,18.66
2023-12-13T17:23:49.436Z,18.62
2023-12-13T17:26:16.225Z,18.58
2023-12-13T17:28:43.028Z,18.54
2023-12-13T17:31:09.888Z,18.54
2023-12-13T17:33:36.782Z,18.41
2023-12-13T17:36:03.692Z,18.52
2023-12-13T17:38:30.542Z,18.53
2023-12-13T17:40:57.355Z,18.48
2023-12-13T17:43:24.206Z,18.55
2023-12-13T17:45:51.007Z,18.57
2023-12-13T17:48:17.860Z,18.51
2023-12-13T17:50:44.854Z,18.54
2023-12-13T17:53:11.826Z,18.56
2023-12-13T17:55:38.753Z,18.55
2023-12-13T17:58:05.558Z,18.57
2023-12-13T18:00:32.403Z,18.58
2023-12-13T18:02:59.222Z,18.60
2023-12-13T18:05:26.077Z,18.64
2023-12-13T18:07:53.111Z,18.65
2023-12-13T18:10:20.005Z,18.67
2023-12-13T18:12:46.845Z,18.70
2023-12-13T18:15:13.647Z,18.69
2023-12-13T18:17:40.517Z,18.73
2023-12-13T18:20:07.510Z,18.75
2023-12-13T18:22:34.670Z,18.80
2023-12-13T18:25:01.717Z,18.83
2023-12-13T18:27:28.558Z,18.84
2023-12-13T18:29:55.348Z,19.00
2023-12-13T18:32:22.300Z,18.90
2023-12-13T18:34:49.280Z,18.82
2023-12-13T18:37:16.148Z,18.97
2023-12-13T18:39:42.971Z,19.00
2023-12-13T18:42:09.820Z,19.01
2023-12-13T18:44:36.635Z,19.04
2023-12-13T18:47:03.552Z,19.05
2023-12-13T18:49:30.644Z,19.01
2023-12-13T18:51:57.706Z,19.04
2023-12-13T18:54:24.564Z,19.04
2023-12-13T18:56:51.392Z,19.02
2023-12-13T18:59:18.210Z,19.01
2023-12-13T19:01:45.029Z,18.99
2023-12-13T19:04:11.848Z,18.97
2023-12-13T19:06:38.650Z,18.95
2023-12-13T19:09:05.489Z,18.90
2023-12-13T19:11:32.269Z,18.88
2023-12-13T19:13:59.671Z,18.86
2023-12-13T19:16:27.205Z,18.85
2023-12-13T19:18:54.110Z,18.87
2023-12-13T19:21:20.952Z,18.81
2023-12-13T19:23:47.745Z,18.81
2023-12-13T19:26:14.535Z,18.78
2023-12-13T19:28:41.320Z,18.77
2023-12-13T19:31:08.137Z,18.74
2023-12-13T19:33:34.980Z,18.74
2023-12-13T19:36:01.832Z,18.70
2023-12-13T19:38:28.715Z,18.67
2023-12-13T19:40:55.638Z,18.71
2023-12-13T19:43:22.441Z,18.69
2023-12-13T19:45:49.217Z,18.64
2023-12-13T19:48:16.070Z,18.61
2023-12-13T19:50:42.925Z,18.57
2023-12-13T19:53:09.876Z,18.58
2023-12-13T19:55:36.750Z,18.57
2023-12-13T19:58:03.556Z,18.54
2023-12-13T20:00:30.380Z,18.51
2023-12-13T20:02:57.181Z,18.56
2023-12-13T20:05:24.116Z,18.53
2023-12-13T20:07:51.081Z,18.47
2023-12-13T20:10:17.928Z,18.44
2023-12-13T20:12:44.785Z,18.56
2023-12-13T20:15:11.581Z,18.50
2023-12-13T20:17:38.705Z,18.44
2023-12-13T20:20:05.824Z,18.56
2023-12-13T20:22:32.779Z,18.46
2023-12-13T20:24:59.619Z,18.55
2023-12-13T20:27:26.460Z,18.45
2023-12-13T20:29:53.285Z,18.56
2023-12-13T20:32:20.162Z,18.76
2023-12-13T20:34:46.969Z,18.61
2023-12-13T20:37:13.827Z,18.63
2023-12-13T20:39:40.673Z,18.62
2023-12-13T20:42:07.453Z,18.60
2023-12-13T20:44:34.325Z,18.59
2023-12-13T20:47:01.279Z,18.68
2023-12-13T20:49:28.219Z,18.74
2023-12-13T20:51:55.081Z,18.66
2023-12-13T20:54:21.876Z,18.61
2023-12-13T20:56:48.736Z,18.59
2023-12-13T20:59:15.589Z,18.56
2023-12-13T21:01:42.412Z,18.51
2023-12-13T21:04:09.322Z,18.54
2023-12-13T21:06:36.113Z,18.47
2023-12-13T21:09:02.961Z,18.43
2023-12-13T21:11:29.764Z,18.40
2023-12-13T21:13:56.625Z,18.41
2023-12-13T21:16:23.485Z,18.39
2023-12-13T21:18:50.345Z,18.39
2023-12-13T21:21:17.258Z,18.40
2023-12-13T21:23:44.056Z,18.35
2023-12-13T21:26:10.934Z,18.39
2023-12-13T21:28:37.816Z,18.36
2023-12-13T21:31:04.841Z,18.32
2023-12-13T21:33:31.731Z,18.35
2023-12-13T21:35:58.572Z,18.34
2023-12-13T21:38:25.402Z,18.34
2023-12-13T21:40:52.244Z,18.31
2023-12-13T21:43:19.080Z,18.33
2023-12-13T21:45:45.885Z,18.34
2023-12-13T21:48:12.782Z,18.31
2023-12-13T21:50:39.594Z,18.35
2023-12-13T21:53:06.448Z,18.33
2023-12-13T21:55:33.345Z,18.32
2023-12-13T21:58:00.237Z,18.33
2023-12-13T22:00:27.175Z,18.31
2023-12-13T22:02:54.030Z,18.31
2023-12-13T22:05:20.850Z,18.30
2023-12-13T22:07:47.654Z,18.25
2023-12-13T22:10:14.551Z,18.27
2023-12-13T22:12:41.434Z,18.26
2023-12-13T22:15:08.237Z,18.24
2023-12-13T22:17:35.294Z,18.28
2023-12-13T22:20:02.312Z,18.24
2023-12-13T22:22:29.278Z,18.25
2023-12-13T22:24:56.123Z,18.27
2023-12-13T22:27:22.967Z,18.24
2023-12-13T22:29:49.786Z,18.23
2023-12-13T22:32:16.637Z,18.23
2023-12-13T22:34:43.555Z,18.22
2023-12-13T22:37:10.355Z,18.16
2023-12-13T22:39:37.149Z,18.18
2023-12-13T22:42:03.967Z,18.22
2023-12-13T22:44:30.794Z,18.18
2023-12-13T22:46:58.070Z,18.18
2023-12-13T22:49:24.947Z,18.16
2023-12-13T22:52:18.641Z,18.13
2023-12-13T22:54:38.551Z,18.15
2023-12-13T22:57:05.366Z,18.15
2023-12-13T22:59:32.160Z,18.16
2023-12-13T23:02:00.578Z,18.11
2023-12-13T23:04:29.217Z,18.12
2023-12-13T23:06:56.056Z,18.09
2023-12-13T23:09:22.861Z,18.09
2023-12-13T23:11:49.660Z,18.08
2023-12-13T23:14:16.477Z,18.06
2023-12-13T23:16:43.415Z,18.06
2023-12-13T23:19:10.415Z,18.08
2023-12-13T23:21:37.302Z,18.08
2023-12-13T23:24:04.145Z,18.02
2023-12-13T23:26:30.939Z,18.05
2023-12-13T23:28:57.864Z,18.05
2023-12-13T23:31:30.025Z,18.08
2023-12-13T23:34:03.360Z,18.07
2023-12-13T23:36:30.235Z,18.01
2023-12-13T23:38:57.081Z,18.01
2023-12-13T23:41:23.852Z,18.00
2023-12-13T23:43:50.706Z,18.01
2023-12-13T23:46:17.576Z,18.00
2023-12-13T23:48:44.395Z,17.99
2023-12-13T23:51:11.298Z,18.04
2023-12-13T23:53:38.118Z,18.02
2023-12-13T23:56:05.073Z,18.00
2023-12-13T23:58:31.896Z,17.99
